sensor_id;sensor_type;location;lat;lon;timestamp;pressure;altitude;pressure_sealevel;temperature;humidity
7660;BME280;3872;47.902;8.162;2023-03-24T00:01:28;91227.81;;;11.90;100.00
7660;BME280;3872;47.902;8.162;2023-03-24T00:03:56;91214.06;;;11.85;100.00
7660;BME280;3872;47.902;8.162;2023-03-24T00:06:23;91219.09;;;11.98;100.00
7660;BME280;3872;47.902;8.162;2023-03-24T00:08:51;91211.16;;;12.07;100.00
7660;BME280;3872;47.902;8.162;2023-03-24T00:11:18;91210.16;;;11.73;100.00
7660;BME280;3872;47.902;8.162;2023-03-24T00:13:45;91207.63;;;11.56;100.00
7660;BME280;3872;47.902;8.162;2023-03-24T00:16:14;91209.44;;;11.64;100.00
7660;BME280;3872;47.902;8.162;2023-03-24T00:18:44;91206.75;;;11.73;100.00
7660;BME280;3872;47.902;8.162;2023-03-24T00:21:19;91205.22;;;11.81;100.00
7660;BME280;3872;47.902;8.162;2023-03-24T00:23:47;91206.47;;;11.66;100.00
7660;BME280;3872;47.902;8.162;2023-03-24T00:26:15;91203.47;;;11.93;100.00
7660;BME280;3872;47.902;8.162;2023-03-24T00:28:44;91189.28;;;11.68;100.00
7660;BME280;3872;47.902;8.162;2023-03-24T00:31:12;91181.19;;;11.82;100.00
7660;BME280;3872;47.902;8.162;2023-03-24T00:33:40;91182.66;;;10.98;100.00
7660;BME280;3872;47.902;8.162;2023-03-24T00:36:09;91186.66;;;11.13;100.00
7660;BME280;3872;47.902;8.162;2023-03-24T00:38:39;91186.34;;;11.61;100.00
7660;BME280;3872;47.902;8.162;2023-03-24T00:41:07;91185.28;;;11.62;100.00
7660;BME280;3872;47.902;8.162;2023-03-24T00:43:35;91188.03;;;11.11;100.00
7660;BME280;3872;47.902;8.162;2023-03-24T00:46:04;91193.34;;;10.85;100.00
7660;BME280;3872;47.902;8.162;2023-03-24T00:48:33;91192.56;;;10.84;100.00
7660;BME280;3872;47.902;8.162;2023-03-24T00:51:03;91185.00;;;10.74;100.00
7660;BME280;3872;47.902;8.162;2023-03-24T00:53:32;91178.78;;;10.87;100.00
7660;BME280;3872;47.902;8.162;2023-03-24T00:56:00;91180.16;;;11.02;100.00
7660;BME280;3872;47.902;8.162;2023-03-24T00:58:27;91173.06;;;10.94;100.00
7660;BME280;3872;47.902;8.162;2023-03-24T01:00:55;91183.81;;;9.98;100.00
7660;BME280;3872;47.902;8.162;2023-03-24T01:03:23;91183.00;;;10.63;100.00
7660;BME280;3872;47.902;8.162;2023-03-24T01:05:52;91174.59;;;10.95;100.00
7660;BME280;3872;47.902;8.162;2023-03-24T01:08:22;91172.25;;;10.16;100.00
7660;BME280;3872;47.902;8.162;2023-03-24T01:10:50;91165.13;;;9.99;100.00
7660;BME280;3872;47.902;8.162;2023-03-24T01:13:20;91174.16;;;10.67;100.00
7660;BME280;3872;47.902;8.162;2023-03-24T01:15:47;91172.59;;;10.66;100.00
7660;BME280;3872;47.902;8.162;2023-03-24T01:18:14;91162.41;;;10.47;100.00
7660;BME280;3872;47.902;8.162;2023-03-24T01:20:42;91168.09;;;10.24;100.00
7660;BME280;3872;47.902;8.162;2023-03-24T01:23:12;91160.41;;;10.44;100.00
7660;BME280;3872;47.902;8.162;2023-03-24T01:25:39;91155.13;;;10.79;100.00
7660;BME280;3872;47.902;8.162;2023-03-24T01:28:09;91157.94;;;10.65;100.00
7660;BME280;3872;47.902;8.162;2023-03-24T01:30:38;91156.81;;;10.32;100.00
7660;BME280;3872;47.902;8.162;2023-03-24T01:33:05;91159.16;;;10.25;100.00
7660;BME280;3872;47.902;8.162;2023-03-24T01:35:32;91156.66;;;10.19;100.00
7660;BME280;3872;47.902;8.162;2023-03-24T01:37:59;91157.28;;;10.59;100.00
7660;BME280;3872;47.902;8.162;2023-03-24T01:40:30;91153.69;;;10.12;100.00
7660;BME280;3872;47.902;8.162;2023-03-24T01:42:57;91139.94;;;10.76;100.00
7660;BME280;3872;47.902;8.162;2023-03-24T01:45:50;91139.44;;;11.08;100.00
7660;BME280;3872;47.902;8.162;2023-03-24T01:48:23;91143.78;;;10.95;100.00
7660;BME280;3872;47.902;8.162;2023-03-24T01:50:59;91136.34;;;10.89;100.00
7660;BME280;3872;47.902;8.162;2023-03-24T01:53:26;91137.28;;;10.93;100.00
7660;BME280;3872;47.902;8.162;2023-03-24T01:55:54;91135.44;;;10.85;100.00
7660;BME280;3872;47.902;8.162;2023-03-24T01:58:25;91139.50;;;10.56;100.00
7660;BME280;3872;47.902;8.162;2023-03-24T02:01:08;91132.38;;;10.31;100.00
7660;BME280;3872;47.902;8.162;2023-03-24T02:03:56;91134.56;;;10.64;100.00
7660;BME280;3872;47.902;8.162;2023-03-24T02:06:23;91131.91;;;10.46;100.00
7660;BME280;3872;47.902;8.162;2023-03-24T02:08:53;91119.47;;;9.78;100.00
7660;BME280;3872;47.902;8.162;2023-03-24T02:11:24;91121.81;;;9.79;100.00
7660;BME280;3872;47.902;8.162;2023-03-24T02:13:55;91125.06;;;9.94;100.00
7660;BME280;3872;47.902;8.162;2023-03-24T02:16:37;91124.31;;;9.93;100.00
7660;BME280;3872;47.902;8.162;2023-03-24T02:19:35;91126.50;;;10.26;100.00
7660;BME280;3872;47.902;8.162;2023-03-24T02:22:44;91123.88;;;10.26;100.00
7660;BME280;3872;47.902;8.162;2023-03-24T02:25:46;91122.88;;;9.70;100.00
7660;BME280;3872;47.902;8.162;2023-03-24T02:28:25;91124.31;;;9.93;100.00
7660;BME280;3872;47.902;8.162;2023-03-24T02:31:24;91120.38;;;9.65;100.00
7660;BME280;3872;47.902;8.162;2023-03-24T02:34:15;91121.03;;;9.96;100.00
7660;BME280;3872;47.902;8.162;2023-03-24T02:40:22;91116.88;;;10.04;100.00
7660;BME280;3872;47.902;8.162;2023-03-24T02:43:00;91122.13;;;9.87;100.00
7660;BME280;3872;47.902;8.162;2023-03-24T02:45:35;91125.22;;;9.89;100.00
7660;BME280;3872;47.902;8.162;2023-03-24T02:48:16;91138.66;;;9.78;100.00
7660;BME280;3872;47.902;8.162;2023-03-24T02:50:51;91132.72;;;10.21;100.00
7660;BME280;3872;47.902;8.162;2023-03-24T02:53:23;91135.41;;;9.90;100.00
7660;BME280;3872;47.902;8.162;2023-03-24T02:56:20;91127.44;;;10.21;100.00
7660;BME280;3872;47.902;8.162;2023-03-24T02:58:53;91096.66;;;10.39;100.00
7660;BME280;3872;47.902;8.162;2023-03-24T03:01:26;91095.22;;;9.90;100.00
7660;BME280;3872;47.902;8.162;2023-03-24T03:04:23;91092.34;;;10.34;100.00
7660;BME280;3872;47.902;8.162;2023-03-24T03:06:54;91092.63;;;10.50;100.00
7660;BME280;3872;47.902;8.162;2023-03-24T03:09:25;91089.69;;;10.17;100.00
7660;BME280;3872;47.902;8.162;2023-03-24T03:11:56;91076.56;;;10.26;100.00
7660;BME280;3872;47.902;8.162;2023-03-24T03:14:29;91066.63;;;10.05;100.00
7660;BME280;3872;47.902;8.162;2023-03-24T03:17:00;91068.06;;;10.29;100.00
7660;BME280;3872;47.902;8.162;2023-03-24T03:19:33;91067.41;;;10.40;100.00
7660;BME280;3872;47.902;8.162;2023-03-24T03:22:04;91065.56;;;10.15;100.00
7660;BME280;3872;47.902;8.162;2023-03-24T03:24:37;91051.81;;;10.35;100.00
7660;BME280;3872;47.902;8.162;2023-03-24T03:27:10;91051.94;;;10.30;100.00
7660;BME280;3872;47.902;8.162;2023-03-24T03:29:43;91050.88;;;10.31;100.00
7660;BME280;3872;47.902;8.162;2023-03-24T03:32:13;91057.81;;;10.10;100.00
7660;BME280;3872;47.902;8.162;2023-03-24T03:34:45;91045.16;;;10.29;100.00
7660;BME280;3872;47.902;8.162;2023-03-24T03:37:24;91040.81;;;10.50;100.00
7660;BME280;3872;47.902;8.162;2023-03-24T03:39:55;91039.41;;;10.44;100.00
7660;BME280;3872;47.902;8.162;2023-03-24T03:42:24;91043.06;;;10.69;100.00
7660;BME280;3872;47.902;8.162;2023-03-24T03:44:52;91046.06;;;10.33;100.00
7660;BME280;3872;47.902;8.162;2023-03-24T03:47:18;91047.28;;;10.53;100.00
7660;BME280;3872;47.902;8.162;2023-03-24T03:49:48;91047.59;;;10.51;100.00
7660;BME280;3872;47.902;8.162;2023-03-24T03:52:15;91050.78;;;10.74;100.00
7660;BME280;3872;47.902;8.162;2023-03-24T03:54:42;91060.91;;;10.55;100.00
7660;BME280;3872;47.902;8.162;2023-03-24T03:57:10;91063.38;;;10.51;100.00
7660;BME280;3872;47.902;8.162;2023-03-24T04:00:16;91077.94;;;10.14;100.00
7660;BME280;3872;47.902;8.162;2023-03-24T04:03:09;91067.41;;;10.49;100.00
7660;BME280;3872;47.902;8.162;2023-03-24T04:05:43;91075.16;;;10.28;100.00
7660;BME280;3872;47.902;8.162;2023-03-24T04:08:24;91077.59;;;10.16;100.00
7660;BME280;3872;47.902;8.162;2023-03-24T04:11:09;91065.25;;;10.34;100.00
7660;BME280;3872;47.902;8.162;2023-03-24T04:14:11;91083.97;;;10.49;100.00
7660;BME280;3872;47.902;8.162;2023-03-24T04:16:53;91088.56;;;10.78;100.00
7660;BME280;3872;47.902;8.162;2023-03-24T04:19:42;91104.75;;;10.97;100.00
7660;BME280;3872;47.902;8.162;2023-03-24T04:22:24;91121.25;;;10.43;100.00
7660;BME280;3872;47.902;8.162;2023-03-24T04:25:12;91125.97;;;11.01;100.00
7660;BME280;3872;47.902;8.162;2023-03-24T04:27:45;91113.38;;;11.53;100.00
7660;BME280;3872;47.902;8.162;2023-03-24T04:30:23;91128.59;;;11.86;100.00
7660;BME280;3872;47.902;8.162;2023-03-24T04:32:56;91120.38;;;11.49;100.00
7660;BME280;3872;47.902;8.162;2023-03-24T04:35:30;91113.06;;;12.13;100.00
7660;BME280;3872;47.902;8.162;2023-03-24T04:38:17;91123.88;;;12.21;100.00
7660;BME280;3872;47.902;8.162;2023-03-24T04:40:52;91129.84;;;12.30;100.00
7660;BME280;3872;47.902;8.162;2023-03-24T04:43:26;91121.06;;;12.26;100.00
7660;BME280;3872;47.902;8.162;2023-03-24T04:46:02;91109.97;;;12.53;100.00
7660;BME280;3872;47.902;8.162;2023-03-24T04:48:46;91106.06;;;12.38;100.00
7660;BME280;3872;47.902;8.162;2023-03-24T04:51:20;91110.34;;;12.22;100.00
7660;BME280;3872;47.902;8.162;2023-03-24T04:54:01;91115.63;;;12.01;100.00
7660;BME280;3872;47.902;8.162;2023-03-24T04:56:35;91110.81;;;11.65;100.00
7660;BME280;3872;47.902;8.162;2023-03-24T04:59:07;91109.00;;;12.16;100.00
7660;BME280;3872;47.902;8.162;2023-03-24T05:01:36;91097.34;;;12.59;100.00
7660;BME280;3872;47.902;8.162;2023-03-24T05:04:25;91101.50;;;12.27;100.00
7660;BME280;3872;47.902;8.162;2023-03-24T05:06:53;91105.84;;;12.02;100.00
7660;BME280;3872;47.902;8.162;2023-03-24T05:09:24;91105.19;;;11.46;100.00
7660;BME280;3872;47.902;8.162;2023-03-24T05:11:51;91109.56;;;12.01;100.00
7660;BME280;3872;47.902;8.162;2023-03-24T05:14:19;91070.34;;;12.20;100.00
7660;BME280;3872;47.902;8.162;2023-03-24T05:16:45;91082.09;;;12.02;100.00
7660;BME280;3872;47.902;8.162;2023-03-24T05:19:15;91077.44;;;12.61;100.00
7660;BME280;3872;47.902;8.162;2023-03-24T05:21:43;91083.53;;;12.41;100.00
7660;BME280;3872;47.902;8.162;2023-03-24T05:24:12;91085.13;;;12.87;100.00
7660;BME280;3872;47.902;8.162;2023-03-24T05:26:39;91085.03;;;12.95;100.00
7660;BME280;3872;47.902;8.162;2023-03-24T05:29:17;91094.06;;;12.94;100.00
7660;BME280;3872;47.902;8.162;2023-03-24T05:31:44;91101.81;;;12.79;100.00
7660;BME280;3872;47.902;8.162;2023-03-24T05:34:20;91098.84;;;12.80;100.00
7660;BME280;3872;47.902;8.162;2023-03-24T05:37:10;91086.47;;;12.60;100.00
7660;BME280;3872;47.902;8.162;2023-03-24T05:39:38;91081.50;;;12.91;100.00
7660;BME280;3872;47.902;8.162;2023-03-24T05:42:09;91088.56;;;12.67;100.00
7660;BME280;3872;47.902;8.162;2023-03-24T05:44:36;91084.41;;;11.83;100.00
7660;BME280;3872;47.902;8.162;2023-03-24T05:47:06;91087.31;;;12.52;100.00
7660;BME280;3872;47.902;8.162;2023-03-24T05:49:33;91080.44;;;12.39;100.00
7660;BME280;3872;47.902;8.162;2023-03-24T05:52:01;91080.13;;;12.73;100.00
7660;BME280;3872;47.902;8.162;2023-03-24T05:54:29;91085.91;;;11.92;100.00
7660;BME280;3872;47.902;8.162;2023-03-24T05:57:06;91082.53;;;12.66;100.00
7660;BME280;3872;47.902;8.162;2023-03-24T05:59:40;91077.88;;;12.84;100.00
7660;BME280;3872;47.902;8.162;2023-03-24T06:02:15;91091.38;;;12.82;100.00
7660;BME280;3872;47.902;8.162;2023-03-24T06:04:55;91086.28;;;13.10;100.00
7660;BME280;3872;47.902;8.162;2023-03-24T06:07:22;91092.16;;;13.16;100.00
7660;BME280;3872;47.902;8.162;2023-03-24T06:09:53;91096.94;;;13.02;100.00
7660;BME280;3872;47.902;8.162;2023-03-24T06:12:22;91095.88;;;13.15;100.00
7660;BME280;3872;47.902;8.162;2023-03-24T06:15:01;91093.75;;;13.41;100.00
7660;BME280;3872;47.902;8.162;2023-03-24T06:17:29;91094.47;;;13.17;100.00
7660;BME280;3872;47.902;8.162;2023-03-24T06:19:59;91114.09;;;13.28;100.00
7660;BME280;3872;47.902;8.162;2023-03-24T06:22:50;91112.66;;;13.31;100.00
7660;BME280;3872;47.902;8.162;2023-03-24T06:25:25;91114.41;;;12.61;100.00
7660;BME280;3872;47.902;8.162;2023-03-24T06:28:10;91106.78;;;12.80;100.00
7660;BME280;3872;47.902;8.162;2023-03-24T06:30:42;91116.59;;;13.13;100.00
7660;BME280;3872;47.902;8.162;2023-03-24T06:33:11;91115.88;;;13.04;100.00
7660;BME280;3872;47.902;8.162;2023-03-24T06:35:41;91117.66;;;13.12;100.00
7660;BME280;3872;47.902;8.162;2023-03-24T06:38:11;91123.34;;;13.35;100.00
7660;BME280;3872;47.902;8.162;2023-03-24T06:40:40;91132.69;;;12.99;100.00
7660;BME280;3872;47.902;8.162;2023-03-24T06:43:07;91143.66;;;12.35;100.00
7660;BME280;3872;47.902;8.162;2023-03-24T06:45:36;91135.97;;;12.96;100.00
7660;BME280;3872;47.902;8.162;2023-03-24T06:48:04;91140.25;;;12.88;100.00
7660;BME280;3872;47.902;8.162;2023-03-24T06:50:31;91147.97;;;13.14;100.00
7660;BME280;3872;47.902;8.162;2023-03-24T06:53:03;91156.38;;;12.75;100.00
7660;BME280;3872;47.902;8.162;2023-03-24T06:55:33;91150.63;;;12.73;100.00
7660;BME280;3872;47.902;8.162;2023-03-24T06:58:02;91147.09;;;12.06;100.00
7660;BME280;3872;47.902;8.162;2023-03-24T07:00:29;91144.78;;;12.26;100.00
7660;BME280;3872;47.902;8.162;2023-03-24T07:03:05;91152.84;;;12.50;100.00
7660;BME280;3872;47.902;8.162;2023-03-24T07:05:36;91156.50;;;12.57;100.00
7660;BME280;3872;47.902;8.162;2023-03-24T07:08:04;91165.25;;;12.29;100.00
7660;BME280;3872;47.902;8.162;2023-03-24T07:10:35;91160.88;;;12.53;100.00
7660;BME280;3872;47.902;8.162;2023-03-24T07:13:05;91160.44;;;12.51;100.00
7660;BME280;3872;47.902;8.162;2023-03-24T07:15:34;91176.03;;;12.15;100.00
7660;BME280;3872;47.902;8.162;2023-03-24T07:18:01;91183.41;;;12.51;100.00
7660;BME280;3872;47.902;8.162;2023-03-24T07:20:40;91179.41;;;12.45;100.00
7660;BME280;3872;47.902;8.162;2023-03-24T07:23:12;91187.91;;;12.50;100.00
7660;BME280;3872;47.902;8.162;2023-03-24T07:26:17;91187.47;;;12.28;100.00
7660;BME280;3872;47.902;8.162;2023-03-24T07:29:05;91203.13;;;12.24;100.00
7660;BME280;3872;47.902;8.162;2023-03-24T07:31:44;91212.63;;;11.41;100.00
7660;BME280;3872;47.902;8.162;2023-03-24T07:34:13;91206.94;;;11.68;100.00
7660;BME280;3872;47.902;8.162;2023-03-24T07:36:40;91217.09;;;12.25;100.00
7660;BME280;3872;47.902;8.162;2023-03-24T07:39:11;91232.84;;;11.66;100.00
7660;BME280;3872;47.902;8.162;2023-03-24T07:41:38;91232.31;;;11.26;100.00
7660;BME280;3872;47.902;8.162;2023-03-24T07:44:14;91229.44;;;11.74;100.00
7660;BME280;3872;47.902;8.162;2023-03-24T07:46:51;91233.13;;;12.20;100.00
7660;BME280;3872;47.902;8.162;2023-03-24T07:49:18;91235.72;;;12.28;100.00
7660;BME280;3872;47.902;8.162;2023-03-24T07:51:52;91231.28;;;12.41;100.00
7660;BME280;3872;47.902;8.162;2023-03-24T07:54:22;91236.47;;;11.99;100.00
7660;BME280;3872;47.902;8.162;2023-03-24T07:56:50;91242.97;;;11.47;100.00
7660;BME280;3872;47.902;8.162;2023-03-24T07:59:18;91244.41;;;12.29;100.00
7660;BME280;3872;47.902;8.162;2023-03-24T08:01:48;91254.06;;;12.16;100.00
7660;BME280;3872;47.902;8.162;2023-03-24T08:04:17;91257.22;;;11.54;100.00
7660;BME280;3872;47.902;8.162;2023-03-24T08:06:59;91250.66;;;11.77;100.00
7660;BME280;3872;47.902;8.162;2023-03-24T08:09:25;91256.16;;;11.38;100.00
7660;BME280;3872;47.902;8.162;2023-03-24T08:11:52;91240.75;;;11.74;100.00
7660;BME280;3872;47.902;8.162;2023-03-24T08:14:20;91231.41;;;12.15;100.00
7660;BME280;3872;47.902;8.162;2023-03-24T08:16:46;91236.03;;;12.27;100.00
7660;BME280;3872;47.902;8.162;2023-03-24T08:19:13;91232.03;;;12.21;100.00
7660;BME280;3872;47.902;8.162;2023-03-24T08:21:39;91235.66;;;12.37;100.00
7660;BME280;3872;47.902;8.162;2023-03-24T08:24:06;91238.56;;;12.44;100.00
7660;BME280;3872;47.902;8.162;2023-03-24T08:26:32;91245.78;;;12.55;100.00
7660;BME280;3872;47.902;8.162;2023-03-24T08:28:59;91245.88;;;12.38;100.00
7660;BME280;3872;47.902;8.162;2023-03-24T08:31:31;91246.34;;;12.11;100.00
7660;BME280;3872;47.902;8.162;2023-03-24T08:33:58;91231.97;;;12.00;100.00
7660;BME280;3872;47.902;8.162;2023-03-24T08:36:25;91221.78;;;11.90;100.00
7660;BME280;3872;47.902;8.162;2023-03-24T08:38:51;91227.41;;;12.09;100.00
7660;BME280;3872;47.902;8.162;2023-03-24T08:41:19;91231.72;;;11.29;100.00
7660;BME280;3872;47.902;8.162;2023-03-24T08:43:46;91190.97;;;12.11;100.00
7660;BME280;3872;47.902;8.162;2023-03-24T08:46:13;91177.31;;;11.24;100.00
7660;BME280;3872;47.902;8.162;2023-03-24T08:48:42;91179.91;;;11.42;100.00
7660;BME280;3872;47.902;8.162;2023-03-24T08:51:10;91146.44;;;12.09;100.00
7660;BME280;3872;47.902;8.162;2023-03-24T08:53:37;91175.91;;;11.35;100.00
7660;BME280;3872;47.902;8.162;2023-03-24T08:56:04;91198.22;;;11.85;100.00
7660;BME280;3872;47.902;8.162;2023-03-24T08:58:30;91211.44;;;11.76;100.00
7660;BME280;3872;47.902;8.162;2023-03-24T09:00:57;91234.88;;;11.60;100.00
7660;BME280;3872;47.902;8.162;2023-03-24T09:03:24;91226.59;;;12.17;100.00
7660;BME280;3872;47.902;8.162;2023-03-24T09:05:55;91232.88;;;12.04;100.00
7660;BME280;3872;47.902;8.162;2023-03-24T09:08:22;91231.00;;;12.04;100.00
7660;BME280;3872;47.902;8.162;2023-03-24T09:10:49;91234.91;;;12.07;100.00
7660;BME280;3872;47.902;8.162;2023-03-24T09:13:17;91231.00;;;12.04;100.00
7660;BME280;3872;47.902;8.162;2023-03-24T09:15:45;91240.97;;;11.99;100.00
7660;BME280;3872;47.902;8.162;2023-03-24T09:18:11;91222.25;;;12.21;100.00
7660;BME280;3872;47.902;8.162;2023-03-24T09:20:38;91202.81;;;12.26;100.00
7660;BME280;3872;47.902;8.162;2023-03-24T09:23:06;91205.09;;;12.36;100.00
7660;BME280;3872;47.902;8.162;2023-03-24T09:25:32;91223.00;;;11.92;100.00
7660;BME280;3872;47.902;8.162;2023-03-24T09:27:59;91217.78;;;12.42;100.00
7660;BME280;3872;47.902;8.162;2023-03-24T09:30:26;91196.22;;;12.40;100.00
7660;BME280;3872;47.902;8.162;2023-03-24T09:32:53;91195.22;;;12.24;100.00
7660;BME280;3872;47.902;8.162;2023-03-24T09:35:23;91180.34;;;12.49;100.00
7660;BME280;3872;47.902;8.162;2023-03-24T09:37:50;91195.25;;;12.45;100.00
7660;BME280;3872;47.902;8.162;2023-03-24T09:40:21;91202.00;;;12.96;100.00
7660;BME280;3872;47.902;8.162;2023-03-24T09:42:53;91216.72;;;12.14;100.00
7660;BME280;3872;47.902;8.162;2023-03-24T09:45:22;91227.88;;;12.40;100.00
7660;BME280;3872;47.902;8.162;2023-03-24T09:47:54;91226.53;;;12.34;100.00
7660;BME280;3872;47.902;8.162;2023-03-24T09:50:24;91232.34;;;12.69;100.00
7660;BME280;3872;47.902;8.162;2023-03-24T09:52:54;91240.47;;;12.64;100.00
7660;BME280;3872;47.902;8.162;2023-03-24T09:55:25;91254.59;;;12.60;100.00
7660;BME280;3872;47.902;8.162;2023-03-24T09:57:56;91266.16;;;11.70;100.00
7660;BME280;3872;47.902;8.162;2023-03-24T10:00:25;91274.69;;;11.76;100.00
7660;BME280;3872;47.902;8.162;2023-03-24T10:02:56;91274.38;;;12.53;100.00
7660;BME280;3872;47.902;8.162;2023-03-24T10:05:28;91277.31;;;12.23;100.00
7660;BME280;3872;47.902;8.162;2023-03-24T10:08:05;91274.00;;;12.34;100.00
7660;BME280;3872;47.902;8.162;2023-03-24T10:10:44;91276.41;;;11.72;100.00
7660;BME280;3872;47.902;8.162;2023-03-24T10:13:19;91276.53;;;12.22;100.00
7660;BME280;3872;47.902;8.162;2023-03-24T10:15:51;91280.56;;;11.82;100.00
7660;BME280;3872;47.902;8.162;2023-03-24T10:18:29;91297.81;;;11.79;100.00
7660;BME280;3872;47.902;8.162;2023-03-24T10:21:04;91286.19;;;12.18;100.00
7660;BME280;3872;47.902;8.162;2023-03-24T10:23:35;91285.78;;;12.37;100.00
7660;BME280;3872;47.902;8.162;2023-03-24T10:26:16;91307.28;;;11.37;100.00
7660;BME280;3872;47.902;8.162;2023-03-24T10:28:49;91308.19;;;11.84;100.00
7660;BME280;3872;47.902;8.162;2023-03-24T10:31:26;91314.94;;;12.02;100.00
7660;BME280;3872;47.902;8.162;2023-03-24T10:33:53;91334.16;;;12.11;100.00
7660;BME280;3872;47.902;8.162;2023-03-24T10:36:21;91333.31;;;11.56;100.00
7660;BME280;3872;47.902;8.162;2023-03-24T10:38:49;91321.34;;;11.93;100.00
7660;BME280;3872;47.902;8.162;2023-03-24T10:41:20;91331.72;;;11.98;100.00
7660;BME280;3872;47.902;8.162;2023-03-24T10:43:48;91321.69;;;11.57;100.00
7660;BME280;3872;47.902;8.162;2023-03-24T10:46:18;91324.81;;;11.50;100.00
7660;BME280;3872;47.902;8.162;2023-03-24T10:48:47;91270.69;;;11.79;100.00
7660;BME280;3872;47.902;8.162;2023-03-24T10:51:16;91278.59;;;11.53;100.00
7660;BME280;3872;47.902;8.162;2023-03-24T10:53:44;91300.47;;;10.76;100.00
7660;BME280;3872;47.902;8.162;2023-03-24T10:56:18;91271.22;;;11.12;100.00
7660;BME280;3872;47.902;8.162;2023-03-24T10:59:02;91285.38;;;10.33;100.00
7660;BME280;3872;47.902;8.162;2023-03-24T11:01:29;91285.47;;;10.93;100.00
7660;BME280;3872;47.902;8.162;2023-03-24T11:03:58;91273.84;;;11.29;100.00
7660;BME280;3872;47.902;8.162;2023-03-24T11:06:25;91295.25;;;10.93;100.00
7660;BME280;3872;47.902;8.162;2023-03-24T11:09:09;91303.88;;;11.45;100.00
7660;BME280;3872;47.902;8.162;2023-03-24T11:11:37;91301.53;;;11.61;100.00
7660;BME280;3872;47.902;8.162;2023-03-24T11:14:18;91305.44;;;11.12;100.00
7660;BME280;3872;47.902;8.162;2023-03-24T11:16:47;91305.28;;;10.82;100.00
7660;BME280;3872;47.902;8.162;2023-03-24T11:19:17;91295.50;;;10.74;100.00
7660;BME280;3872;47.902;8.162;2023-03-24T11:21:45;91298.19;;;11.00;100.00
7660;BME280;3872;47.902;8.162;2023-03-24T11:24:15;91293.69;;;11.01;100.00
7660;BME280;3872;47.902;8.162;2023-03-24T11:26:56;91304.03;;;10.63;100.00
7660;BME280;3872;47.902;8.162;2023-03-24T11:29:25;91280.97;;;11.20;100.00
7660;BME280;3872;47.902;8.162;2023-03-24T11:31:53;91293.66;;;11.26;100.00
7660;BME280;3872;47.902;8.162;2023-03-24T11:34:23;91282.84;;;10.85;100.00
7660;BME280;3872;47.902;8.162;2023-03-24T11:36:52;91253.22;;;11.31;100.00
7660;BME280;3872;47.902;8.162;2023-03-24T11:39:21;91260.69;;;10.94;100.00
7660;BME280;3872;47.902;8.162;2023-03-24T11:42:05;91250.00;;;10.56;100.00
7660;BME280;3872;47.902;8.162;2023-03-24T11:44:43;91259.84;;;11.46;100.00
7660;BME280;3872;47.902;8.162;2023-03-24T11:47:12;91264.25;;;10.90;100.00
7660;BME280;3872;47.902;8.162;2023-03-24T11:49:44;91240.38;;;11.93;100.00
7660;BME280;3872;47.902;8.162;2023-03-24T11:52:19;91264.66;;;11.52;100.00
7660;BME280;3872;47.902;8.162;2023-03-24T11:54:47;91291.16;;;11.38;100.00
7660;BME280;3872;47.902;8.162;2023-03-24T11:57:20;91288.56;;;10.78;100.00
7660;BME280;3872;47.902;8.162;2023-03-24T11:59:53;91288.03;;;11.71;100.00
7660;BME280;3872;47.902;8.162;2023-03-24T12:02:29;91285.94;;;11.21;100.00
7660;BME280;3872;47.902;8.162;2023-03-24T12:05:19;91285.31;;;10.73;100.00
7660;BME280;3872;47.902;8.162;2023-03-24T12:08:00;91287.38;;;10.28;100.00
7660;BME280;3872;47.902;8.162;2023-03-24T12:10:41;91287.63;;;11.17;100.00
7660;BME280;3872;47.902;8.162;2023-03-24T12:13:12;91281.59;;;10.82;100.00
7660;BME280;3872;47.902;8.162;2023-03-24T12:15:55;91277.09;;;11.34;100.00
7660;BME280;3872;47.902;8.162;2023-03-24T12:18:46;91283.78;;;11.15;100.00
7660;BME280;3872;47.902;8.162;2023-03-24T12:21:23;91271.69;;;11.05;100.00
7660;BME280;3872;47.902;8.162;2023-03-24T12:23:57;91252.78;;;11.12;100.00
7660;BME280;3872;47.902;8.162;2023-03-24T12:26:25;91249.50;;;11.23;100.00
7660;BME280;3872;47.902;8.162;2023-03-24T12:29:07;91256.50;;;11.02;100.00
7660;BME280;3872;47.902;8.162;2023-03-24T12:31:51;91262.19;;;11.47;100.00
7660;BME280;3872;47.902;8.162;2023-03-24T12:34:37;91259.03;;;12.18;100.00
7660;BME280;3872;47.902;8.162;2023-03-24T12:37:14;91266.78;;;11.85;100.00
7660;BME280;3872;47.902;8.162;2023-03-24T12:39:49;91252.38;;;12.11;100.00
7660;BME280;3872;47.902;8.162;2023-03-24T12:42:22;91255.81;;;12.12;100.00
7660;BME280;3872;47.902;8.162;2023-03-24T12:45:04;91260.53;;;10.91;100.00
7660;BME280;3872;47.902;8.162;2023-03-24T12:47:51;91249.69;;;10.75;100.00
7660;BME280;3872;47.902;8.162;2023-03-24T12:50:31;91259.94;;;10.85;100.00
7660;BME280;3872;47.902;8.162;2023-03-24T12:53:07;91268.50;;;11.72;100.00
7660;BME280;3872;47.902;8.162;2023-03-24T12:55:42;91254.81;;;10.63;100.00
7660;BME280;3872;47.902;8.162;2023-03-24T12:58:13;91253.69;;;11.42;100.00
7660;BME280;3872;47.902;8.162;2023-03-24T13:00:54;91258.50;;;10.62;100.00
7660;BME280;3872;47.902;8.162;2023-03-24T13:03:28;91261.47;;;10.95;100.00
7660;BME280;3872;47.902;8.162;2023-03-24T13:05:58;91264.69;;;11.26;100.00
7660;BME280;3872;47.902;8.162;2023-03-24T13:08:29;91259.38;;;11.52;100.00
7660;BME280;3872;47.902;8.162;2023-03-24T13:10:59;91277.25;;;10.78;100.00
7660;BME280;3872;47.902;8.162;2023-03-24T13:13:31;91287.97;;;10.25;100.00
7660;BME280;3872;47.902;8.162;2023-03-24T13:16:07;91279.44;;;11.10;100.00
7660;BME280;3872;47.902;8.162;2023-03-24T13:18:36;91303.38;;;11.60;100.00
7660;BME280;3872;47.902;8.162;2023-03-24T13:21:07;91292.31;;;10.20;100.00
7660;BME280;3872;47.902;8.162;2023-03-24T13:23:41;91289.97;;;10.93;100.00
7660;BME280;3872;47.902;8.162;2023-03-24T13:26:25;91281.44;;;10.87;100.00
7660;BME280;3872;47.902;8.162;2023-03-24T13:29:04;91270.28;;;11.25;100.00
7660;BME280;3872;47.902;8.162;2023-03-24T13:31:37;91271.31;;;10.38;100.00
7660;BME280;3872;47.902;8.162;2023-03-24T13:34:09;91283.28;;;10.13;100.00
7660;BME280;3872;47.902;8.162;2023-03-24T13:36:45;91280.16;;;10.59;100.00
7660;BME280;3872;47.902;8.162;2023-03-24T13:39:16;91273.22;;;10.89;100.00
7660;BME280;3872;47.902;8.162;2023-03-24T13:41:47;91274.13;;;10.50;100.00
7660;BME280;3872;47.902;8.162;2023-03-24T13:44:18;91268.19;;;10.27;100.00
7660;BME280;3872;47.902;8.162;2023-03-24T13:47:03;91264.88;;;10.70;100.00